createdAt,value
2023-03-04T00:00:11.202Z,6.73
2023-03-04T00:02:38.136Z,6.64
2023-03-04T00:05:05.338Z,6.45
2023-03-04T00:07:33.390Z,6.81
2023-03-04T00:10:03.598Z,6.21
2023-03-04T00:12:30.949Z,6.81
2023-03-04T00:14:57.848Z,6.72
2023-03-04T00:17:24.865Z,6.86
2023-03-04T00:19:51.769Z,6.85
2023-03-04T00:22:18.678Z,6.66
2023-03-04T00:24:45.568Z,6.81
2023-03-04T00:27:12.794Z,6.81
2023-03-04T00:29:39.732Z,6.74
2023-03-04T00:32:06.671Z,6.72
2023-03-04T00:34:33.653Z,6.90
2023-03-04T00:37:03.490Z,6.36
2023-03-04T00:39:30.831Z,6.72
2023-03-04T00:41:57.722Z,6.67
2023-03-04T00:44:24.702Z,6.87
2023-03-04T00:46:51.610Z,6.55
2023-03-04T00:49:18.503Z,6.74
2023-03-04T00:51:45.400Z,6.63
2023-03-04T00:54:12.302Z,6.90
2023-03-04T00:56:39.287Z,6.67
2023-03-04T00:59:06.163Z,6.79
2023-03-04T01:01:35.764Z,6.90
2023-03-04T01:04:03.386Z,6.91
2023-03-04T01:06:30.865Z,6.76
2023-03-04T01:08:57.871Z,6.68
2023-03-04T01:11:24.820Z,6.82
2023-03-04T01:13:51.731Z,6.77
2023-03-04T01:16:18.713Z,6.69
2023-03-04T01:18:47.272Z,6.86
2023-03-04T01:21:14.250Z,6.82
2023-03-04T01:23:41.168Z,6.88
2023-03-04T01:26:08.118Z,6.87
2023-03-04T01:28:36.010Z,6.73
2023-03-04T01:31:06.135Z,6.71
2023-03-04T01:33:33.455Z,6.67
2023-03-04T01:36:00.576Z,6.41
2023-03-04T01:38:27.494Z,6.60
2023-03-04T01:40:54.388Z,6.67
2023-03-04T01:43:24.005Z,6.56
2023-03-04T01:45:54.016Z,6.77
2023-03-04T01:48:31.746Z,6.57
2023-03-04T01:51:07.482Z,6.63
2023-03-04T01:53:34.386Z,6.48
2023-03-04T01:56:05.725Z,6.36
2023-03-04T01:58:35.685Z,6.55
2023-03-04T02:01:05.919Z,6.56
2023-03-04T02:03:35.345Z,6.43
2023-03-04T02:06:02.894Z,6.73
2023-03-04T02:08:29.906Z,6.57
2023-03-04T02:10:56.817Z,6.53
2023-03-04T02:13:23.695Z,6.51
2023-03-04T02:15:50.628Z,6.72
2023-03-04T02:18:24.689Z,6.66
2023-03-04T02:21:11.529Z,6.68
2023-03-04T02:23:38.413Z,6.68
2023-03-04T02:26:22.463Z,6.58
2023-03-04T02:28:50.698Z,6.67
2023-03-04T02:31:27.043Z,6.35
2023-03-04T02:33:55.387Z,6.53
2023-03-04T02:36:22.916Z,6.33
2023-03-04T02:38:54.015Z,6.57
2023-03-04T02:41:23.583Z,6.67
2023-03-04T02:43:54.210Z,6.67
2023-03-04T02:46:21.143Z,6.68
2023-03-04T02:48:48.156Z,6.55
2023-03-04T02:51:15.060Z,6.67
2023-03-04T02:53:42.148Z,6.58
2023-03-04T02:56:09.155Z,6.40
2023-03-04T02:58:36.101Z,6.51
2023-03-04T03:01:03.618Z,6.60
2023-03-04T03:03:30.919Z,6.55
2023-03-04T03:05:57.974Z,6.51
2023-03-04T03:08:24.869Z,6.33
2023-03-04T03:10:51.808Z,6.42
2023-03-04T03:13:19.331Z,6.67
2023-03-04T03:15:47.074Z,6.45
2023-03-04T03:18:15.376Z,6.43
2023-03-04T03:20:42.355Z,6.60
2023-03-04T03:23:09.329Z,6.55
2023-03-04T03:25:36.242Z,6.37
2023-03-04T03:28:03.601Z,6.68
2023-03-04T03:30:33.400Z,6.32
2023-03-04T03:33:09.016Z,6.67
2023-03-04T03:35:35.969Z,6.36
2023-03-04T03:38:05.927Z,6.37
2023-03-04T03:40:33.664Z,6.69
2023-03-04T03:43:00.943Z,6.42
2023-03-04T03:45:27.929Z,6.71
2023-03-04T03:47:54.976Z,6.63
2023-03-04T03:50:21.907Z,6.29
2023-03-04T03:52:48.787Z,6.40
2023-03-04T03:55:15.722Z,6.45
2023-03-04T03:57:42.659Z,6.43
2023-03-04T04:00:10.173Z,6.64
2023-03-04T04:02:37.213Z,6.67
2023-03-04T04:05:04.464Z,6.37
2023-03-04T04:07:33.916Z,6.34
2023-03-04T04:10:01.017Z,6.63
2023-03-04T04:12:27.990Z,6.58
2023-03-04T04:14:55.354Z,6.65
2023-03-04T04:17:22.252Z,6.65
2023-03-04T04:19:49.153Z,6.54
2023-03-04T04:22:17.925Z,6.44
2023-03-04T04:24:44.896Z,5.99
2023-03-04T04:27:11.867Z,6.38
2023-03-04T04:29:38.920Z,6.46
2023-03-04T04:32:06.176Z,6.47
2023-03-04T04:34:33.679Z,6.66
2023-03-04T04:37:00.917Z,6.45
2023-03-04T04:39:27.825Z,6.24
2023-03-04T04:41:54.705Z,5.63
2023-03-04T04:44:21.684Z,6.66
2023-03-04T06:02:51.966Z,6.64
2023-03-04T06:05:19.339Z,6.20
2023-03-04T06:07:46.408Z,6.59
2023-03-04T06:10:15.411Z,6.20
2023-03-04T06:12:45.256Z,6.43
2023-03-04T06:15:15.467Z,6.52
2023-03-04T06:17:45.718Z,6.52
2023-03-04T06:20:13.793Z,6.62
2023-03-04T06:22:40.787Z,6.51
2023-03-04T06:25:07.998Z,6.37
2023-03-04T06:27:34.964Z,6.47
2023-03-04T06:30:02.154Z,6.53
2023-03-04T06:32:29.097Z,6.55
2023-03-04T06:34:56.295Z,6.57
2023-03-04T06:37:23.336Z,6.33
2023-03-04T06:39:50.479Z,6.63
2023-03-04T06:42:17.484Z,6.47
2023-03-04T06:44:44.404Z,6.62
2023-03-04T06:47:11.850Z,6.45
2023-03-04T06:49:38.799Z,6.35
2023-03-04T06:52:05.878Z,6.39
2023-03-04T06:54:32.772Z,6.14
2023-03-04T06:56:59.669Z,6.25
2023-03-04T06:59:26.610Z,6.43
2023-03-04T07:01:53.508Z,6.20
2023-03-04T07:04:20.647Z,6.53
2023-03-04T07:06:47.561Z,6.33
2023-03-04T07:09:14.501Z,6.39
2023-03-04T07:11:44.019Z,6.19
2023-03-04T07:14:11.061Z,6.30
2023-03-04T07:16:38.037Z,6.58
2023-03-04T07:19:05.035Z,6.44
2023-03-04T07:21:31.961Z,6.42
2023-03-04T07:23:58.863Z,6.61
2023-03-04T07:26:25.804Z,6.62
2023-03-04T07:28:54.597Z,6.30
2023-03-04T07:31:29.993Z,6.45
2023-03-04T07:34:05.284Z,6.52
2023-03-04T07:36:33.060Z,6.29
2023-03-04T07:38:59.948Z,6.35
2023-03-04T07:41:28.435Z,6.32
2023-03-04T07:43:57.046Z,6.17
2023-03-04T07:46:24.254Z,6.50
2023-03-04T07:48:51.186Z,6.13
2023-03-04T07:51:22.595Z,6.52
2023-03-04T07:53:51.751Z,6.65
2023-03-04T07:56:24.617Z,6.68
2023-03-04T07:58:54.274Z,6.25
2023-03-04T08:01:23.833Z,6.21
2023-03-04T08:03:50.795Z,6.76
2023-03-04T08:06:19.473Z,6.76
2023-03-04T08:08:46.773Z,6.66
2023-03-04T08:11:16.611Z,6.52
2023-03-04T08:13:43.960Z,6.80
2023-03-04T08:16:15.624Z,6.75
2023-03-04T08:18:48.250Z,6.62
2023-03-04T08:21:18.465Z,6.73
2023-03-04T08:23:46.129Z,6.84
2023-03-04T08:26:24.405Z,6.93
2023-03-04T08:28:52.034Z,6.74
2023-03-04T08:31:24.086Z,7.03
2023-03-04T08:33:51.407Z,6.89
2023-03-04T08:36:18.537Z,7.00
2023-03-04T08:38:45.426Z,7.09
2023-03-04T08:41:15.708Z,7.30
2023-03-04T08:43:43.521Z,7.43
2023-03-04T08:46:10.499Z,7.35
2023-03-04T08:48:38.188Z,6.89
2023-03-04T08:51:14.071Z,7.38
2023-03-04T08:53:42.965Z,7.38
2023-03-04T08:56:10.525Z,7.29
2023-03-04T08:58:37.510Z,7.28
2023-03-04T09:01:05.469Z,7.62
2023-03-04T09:03:32.451Z,7.53
2023-03-04T09:05:59.624Z,7.45
2023-03-04T09:08:26.536Z,7.47
2023-03-04T09:10:54.544Z,7.37
2023-03-04T09:13:25.811Z,7.40
2023-03-04T09:15:53.749Z,7.03
2023-03-04T09:18:21.713Z,7.14
2023-03-04T09:20:48.644Z,6.74
2023-03-04T09:23:15.759Z,7.18
2023-03-04T09:25:43.755Z,7.44
2023-03-04T09:28:12.501Z,7.47
2023-03-04T09:30:39.629Z,7.18
2023-03-04T09:33:06.516Z,7.10
2023-03-04T09:35:33.453Z,6.98
2023-03-04T09:38:00.414Z,7.43
2023-03-04T09:40:29.790Z,7.27
2023-03-04T09:42:59.553Z,7.31
2023-03-04T09:45:31.330Z,7.23
2023-03-04T09:47:58.250Z,7.40
2023-03-04T09:50:25.184Z,7.36
2023-03-04T09:52:58.105Z,7.46
2023-03-04T09:55:29.187Z,7.21
2023-03-04T09:58:14.039Z,7.59
2023-03-04T10:00:57.072Z,7.65
2023-03-04T10:03:25.958Z,7.63
2023-03-04T10:06:13.633Z,7.99
2023-03-04T10:08:43.406Z,8.10
2023-03-04T10:11:21.481Z,8.05
2023-03-04T10:14:05.139Z,8.16
2023-03-04T10:17:00.725Z,7.87
2023-03-04T10:19:43.491Z,8.05
2023-03-04T10:22:21.443Z,7.81
2023-03-04T10:24:48.471Z,7.75
2023-03-04T10:27:17.199Z,7.85
2023-03-04T10:29:44.149Z,7.66
2023-03-04T10:32:19.350Z,7.59
2023-03-04T10:34:46.767Z,7.70
2023-03-04T10:37:13.874Z,7.93
2023-03-04T10:39:45.852Z,7.87
2023-03-04T10:42:15.763Z,8.04
2023-03-04T10:44:57.171Z,8.04
2023-03-04T10:47:25.547Z,8.11
2023-03-04T10:49:54.343Z,8.14
2023-03-04T10:52:27.859Z,8.26
2023-03-04T10:54:58.960Z,8.18
2023-03-04T10:57:35.891Z,8.25
2023-03-04T11:00:26.372Z,8.18
2023-03-04T11:02:53.282Z,7.77
2023-03-04T11:05:26.246Z,7.94
2023-03-04T11:07:58.887Z,7.93
2023-03-04T11:10:38.241Z,8.00
2023-03-04T11:13:11.114Z,8.00
2023-03-04T11:15:51.717Z,7.98
2023-03-04T11:18:32.300Z,7.73
2023-03-04T11:20:59.221Z,7.97
2023-03-04T11:23:44.600Z,8.10
2023-03-04T11:26:24.126Z,8.11
2023-03-04T11:28:54.060Z,8.21
2023-03-04T11:31:32.531Z,7.40
2023-03-04T11:34:16.536Z,8.19
2023-03-04T11:36:57.381Z,8.21
2023-03-04T11:39:31.998Z,8.21
2023-03-04T11:42:01.805Z,8.20
2023-03-04T11:44:29.725Z,8.08
2023-03-04T11:47:23.180Z,8.14
2023-03-04T11:50:14.997Z,7.83
2023-03-04T11:52:50.740Z,8.03
2023-03-04T11:55:31.640Z,7.98
2023-03-04T11:58:26.348Z,7.89
2023-03-04T12:01:07.283Z,7.95
2023-03-04T12:03:57.682Z,7.92
2023-03-04T12:06:39.962Z,7.96
2023-03-04T12:09:44.995Z,7.99
2023-03-04T12:12:30.188Z,8.03
2023-03-04T12:15:33.732Z,7.97
2023-03-04T12:18:16.306Z,8.10
2023-03-04T12:21:07.350Z,8.00
2023-03-04T12:24:02.913Z,8.17
2023-03-04T12:26:40.966Z,8.17
2023-03-04T12:29:31.396Z,8.27
2023-03-04T12:32:02.244Z,8.16
2023-03-04T12:34:32.490Z,8.27
2023-03-04T12:37:10.058Z,7.70
2023-03-04T12:40:06.212Z,8.30
2023-03-04T12:42:38.213Z,8.32
2023-03-04T12:45:14.210Z,8.32
2023-03-04T12:48:02.670Z,8.33
2023-03-04T12:50:31.705Z,8.31
2023-03-04T12:53:07.747Z,8.32
2023-03-04T12:55:40.103Z,8.09
2023-03-04T12:58:07.267Z,8.25
2023-03-04T13:01:13.103Z,8.38
2023-03-04T13:04:02.844Z,8.09
2023-03-04T13:06:34.995Z,8.28
2023-03-04T13:09:07.723Z,8.32
2023-03-04T13:11:52.575Z,8.26
2023-03-04T13:14:25.102Z,8.20
2023-03-04T13:16:54.301Z,8.08
2023-03-04T13:19:43.559Z,8.21
2023-03-04T13:22:30.025Z,8.22
2023-03-04T13:24:57.830Z,7.67
2023-03-04T13:28:06.157Z,8.33
2023-03-04T13:30:33.517Z,8.36
2023-03-04T13:33:09.438Z,8.40
2023-03-04T13:36:00.822Z,8.33
2023-03-04T13:38:27.717Z,8.46
2023-03-04T13:41:00.437Z,8.44
2023-03-04T13:43:41.837Z,8.35
2023-03-04T13:46:29.757Z,8.34
2023-03-04T13:49:02.231Z,8.31
2023-03-04T13:51:46.206Z,7.91
2023-03-04T13:54:19.286Z,8.18
2023-03-04T13:57:01.479Z,8.09
2023-03-04T13:59:39.486Z,7.83
2023-03-04T14:02:22.700Z,7.66
2023-03-04T14:05:00.817Z,7.87
2023-03-04T14:07:27.621Z,8.01
2023-03-04T14:10:15.099Z,8.05
2023-03-04T14:12:45.838Z,8.02
2023-03-04T14:15:15.701Z,8.12
2023-03-04T14:17:47.427Z,8.15
2023-03-04T14:20:34.023Z,8.16
2023-03-04T14:23:02.142Z,8.04
2023-03-04T14:25:35.499Z,7.88
2023-03-04T14:28:17.685Z,7.83
2023-03-04T14:30:55.356Z,7.66
2023-03-04T14:33:27.187Z,8.22
2023-03-04T14:35:56.855Z,7.86
2023-03-04T14:38:31.038Z,8.30
2023-03-04T14:41:06.966Z,8.02
2023-03-04T14:43:59.355Z,8.38
2023-03-04T14:46:28.604Z,8.17
2023-03-04T14:48:55.584Z,8.43
2023-03-04T14:51:41.787Z,8.23
2023-03-04T14:54:28.767Z,8.27
2023-03-04T14:56:55.993Z,8.22
2023-03-04T14:59:49.120Z,8.35
2023-03-04T15:02:31.477Z,8.31
2023-03-04T15:05:00.689Z,7.93
2023-03-04T15:07:31.889Z,7.98
2023-03-04T15:09:58.889Z,8.00
2023-03-04T15:12:30.951Z,7.96
2023-03-04T15:14:59.231Z,8.00
2023-03-04T15:17:37.480Z,8.17
2023-03-04T15:20:07.470Z,8.16
2023-03-04T15:22:35.742Z,8.01
2023-03-04T15:25:02.872Z,7.88
2023-03-04T15:27:30.667Z,7.76
2023-03-04T15:29:59.491Z,8.05
2023-03-04T15:32:27.228Z,7.89
2023-03-04T15:34:54.209Z,8.01
2023-03-04T15:37:23.772Z,7.74
2023-03-04T15:39:50.809Z,7.52
2023-03-04T15:42:17.822Z,7.76
2023-03-04T15:44:44.852Z,7.79
2023-03-04T15:47:13.917Z,7.63
2023-03-04T15:49:41.862Z,7.90
2023-03-04T15:52:21.467Z,7.05
2023-03-04T15:54:48.536Z,7.60
2023-03-04T15:57:24.399Z,7.72
2023-03-04T15:59:51.843Z,7.21
2023-03-04T16:02:24.057Z,7.78
2023-03-04T16:04:51.199Z,7.07
2023-03-04T16:07:24.270Z,7.75
2023-03-04T16:09:55.608Z,7.45
2023-03-04T16:12:22.569Z,7.74
2023-03-04T16:14:50.083Z,7.72
2023-03-04T16:17:17.059Z,7.63
2023-03-04T16:19:44.123Z,7.45
2023-03-04T16:22:15.227Z,7.46
2023-03-04T16:24:42.930Z,7.55
2023-03-04T16:27:14.336Z,7.58
2023-03-04T16:29:41.813Z,7.49
2023-03-04T16:32:09.499Z,7.35
2023-03-04T16:34:36.522Z,7.20
2023-03-04T16:37:06.746Z,6.99
2023-03-04T16:39:33.709Z,7.26
2023-03-04T16:42:00.627Z,7.26
2023-03-04T16:44:27.620Z,7.02
2023-03-04T16:46:54.574Z,7.29
2023-03-04T16:49:21.646Z,7.04
2023-03-04T16:51:49.455Z,7.26
2023-03-04T16:54:19.089Z,7.14
2023-03-04T16:56:45.982Z,7.23
2023-03-04T16:59:16.516Z,7.13
2023-03-04T17:01:43.929Z,7.21
2023-03-04T17:04:10.899Z,7.21
2023-03-04T17:06:38.601Z,6.99
2023-03-04T17:09:07.075Z,7.17
2023-03-04T17:11:34.053Z,6.70
2023-03-04T17:14:00.965Z,6.92
2023-03-04T17:16:27.978Z,6.91
2023-03-04T17:18:55.159Z,7.02
2023-03-04T17:21:26.519Z,6.85
2023-03-04T17:23:54.077Z,6.87
2023-03-04T17:26:22.677Z,6.87
2023-03-04T17:28:50.461Z,6.96
2023-03-04T17:31:19.610Z,6.97
2023-03-04T17:33:46.969Z,6.93
2023-03-04T17:36:14.723Z,6.82
2023-03-04T17:38:41.934Z,6.51
2023-03-04T17:41:13.564Z,6.86
2023-03-04T17:43:45.532Z,6.95
2023-03-04T17:46:14.259Z,6.80
2023-03-04T17:48:43.688Z,6.92
2023-03-04T17:51:10.783Z,6.96
2023-03-04T17:53:38.229Z,6.84
2023-03-04T17:56:08.063Z,6.94
2023-03-04T17:58:36.222Z,6.90
2023-03-04T18:01:16.831Z,6.79
2023-03-04T18:03:44.231Z,6.91
2023-03-04T18:06:13.712Z,6.81
2023-03-04T18:08:40.776Z,6.80
2023-03-04T18:11:07.740Z,6.57
2023-03-04T18:13:34.657Z,6.57
2023-03-04T18:16:01.664Z,6.77
2023-03-04T18:18:28.584Z,6.51
2023-03-04T18:20:59.488Z,6.47
2023-03-04T18:23:29.704Z,6.77
2023-03-04T18:25:57.001Z,6.65
2023-03-04T18:28:24.067Z,6.43
2023-03-04T18:30:51.936Z,6.71
2023-03-04T18:33:19.141Z,6.65
2023-03-04T18:35:46.051Z,6.47
2023-03-04T18:38:13.457Z,6.57
2023-03-04T18:40:43.367Z,6.14
2023-03-04T18:43:10.264Z,6.47
2023-03-04T18:45:37.203Z,6.34
2023-03-04T18:48:04.264Z,6.51
2023-03-04T18:50:31.152Z,6.14
2023-03-04T18:52:58.052Z,6.18
2023-03-04T18:55:25.044Z,6.07
2023-03-04T18:57:52.702Z,6.16
2023-03-04T19:00:23.379Z,6.03
2023-03-04T19:02:57.110Z,6.38
2023-03-04T19:05:27.431Z,6.24
2023-03-04T19:07:54.835Z,6.14
2023-03-04T19:10:22.123Z,6.34
2023-03-04T19:12:49.191Z,6.14
2023-03-04T19:15:16.238Z,6.24
2023-03-04T19:17:45.869Z,6.36
2023-03-04T19:20:13.889Z,6.23
2023-03-04T19:22:40.991Z,5.89
2023-03-04T19:25:08.793Z,5.47
2023-03-04T19:27:36.512Z,6.23
2023-03-04T19:30:04.585Z,6.25
2023-03-04T19:32:31.535Z,6.20
2023-03-04T19:34:58.496Z,6.00
2023-03-04T19:37:25.478Z,5.96
2023-03-04T19:39:54.468Z,6.18
2023-03-04T19:42:21.618Z,6.33
2023-03-04T19:44:48.627Z,6.11
2023-03-04T19:47:15.644Z,6.34
2023-03-04T19:49:43.172Z,6.21
2023-03-04T19:52:10.079Z,6.11
2023-03-04T19:54:37.025Z,6.28
2023-03-04T19:57:04.052Z,6.17
2023-03-04T19:59:30.959Z,6.14
2023-03-04T20:01:59.767Z,6.09
2023-03-04T20:04:26.708Z,6.29
2023-03-04T20:06:53.652Z,6.06
2023-03-04T20:09:20.578Z,6.02
2023-03-04T20:11:57.567Z,6.08
2023-03-04T20:14:25.800Z,6.13
2023-03-04T20:16:52.725Z,5.78
2023-03-04T20:19:19.645Z,5.98
2023-03-04T20:21:46.571Z,6.11
2023-03-04T20:24:15.114Z,6.08
2023-03-04T20:26:42.153Z,5.74
2023-03-04T20:29:09.108Z,5.96
2023-03-04T20:31:38.348Z,5.97
2023-03-04T20:34:06.094Z,5.62
2023-03-04T20:36:33.237Z,5.53
2023-03-04T20:39:02.758Z,5.56
2023-03-04T20:41:31.628Z,5.84
2023-03-04T20:43:58.534Z,5.69
2023-03-04T20:46:45.333Z,5.88
2023-03-04T20:49:15.196Z,5.72
2023-03-04T20:51:45.375Z,5.62
2023-03-04T20:54:13.427Z,5.29
2023-03-04T20:56:42.195Z,5.54
2023-03-04T20:59:10.638Z,5.55
2023-03-04T21:01:40.083Z,5.74
2023-03-04T21:04:07.481Z,5.52
2023-03-04T21:06:34.495Z,5.31
2023-03-04T21:09:04.217Z,5.52
2023-03-04T21:11:31.236Z,5.67
2023-03-04T21:13:58.177Z,5.54
2023-03-04T21:16:27.436Z,5.78
2023-03-04T21:18:54.398Z,5.80
2023-03-04T21:21:23.539Z,5.81
2023-03-04T21:23:51.276Z,5.68
2023-03-04T21:26:18.817Z,5.69
2023-03-04T21:28:46.280Z,5.69
2023-03-04T21:31:18.177Z,5.54
2023-03-04T21:33:45.481Z,5.77
2023-03-04T21:36:15.988Z,5.64
2023-03-04T21:38:46.150Z,5.73
2023-03-04T21:41:14.842Z,5.63
2023-03-04T21:43:41.900Z,5.69
2023-03-04T21:46:09.837Z,5.66
2023-03-04T21:48:36.979Z,5.57
2023-03-04T21:51:08.222Z,5.79
2023-03-04T21:53:35.646Z,5.55
2023-03-04T21:56:03.095Z,5.67
2023-03-04T21:58:30.284Z,5.66
2023-03-04T22:00:59.168Z,5.68
2023-03-04T22:03:27.296Z,5.41
2023-03-04T22:05:54.269Z,5.46
2023-03-04T22:08:21.256Z,5.74
2023-03-04T22:10:48.495Z,5.74
2023-03-04T22:13:15.958Z,5.67
2023-03-04T22:15:46.060Z,5.76
2023-03-04T22:18:14.080Z,5.52
2023-03-04T22:20:43.886Z,5.37
2023-03-04T22:23:11.696Z,5.33
2023-03-04T22:25:39.802Z,5.29
2023-03-04T22:28:06.999Z,5.40
2023-03-04T22:30:34.934Z,5.19
2023-03-04T22:33:01.876Z,5.14
2023-03-04T22:35:28.862Z,5.42
2023-03-04T22:37:55.769Z,5.50
2023-03-04T22:40:22.708Z,5.11
2023-03-04T22:42:49.698Z,4.52
2023-03-04T22:45:17.962Z,5.24
2023-03-04T22:47:52.214Z,5.11
2023-03-04T22:50:20.204Z,5.48
2023-03-04T22:52:47.742Z,5.26
2023-03-04T22:55:16.194Z,5.34
2023-03-04T22:57:43.913Z,5.33
2023-03-04T23:00:24.233Z,5.43
2023-03-04T23:02:51.635Z,5.44
2023-03-04T23:05:21.047Z,5.43
2023-03-04T23:07:49.404Z,5.10
2023-03-04T23:10:19.868Z,5.31
2023-03-04T23:12:46.754Z,5.38
2023-03-04T23:15:15.744Z,5.26
2023-03-04T23:17:46.155Z,5.37
2023-03-04T23:20:19.465Z,5.13
2023-03-04T23:22:48.168Z,5.36
2023-03-04T23:25:16.103Z,5.37
2023-03-04T23:27:46.064Z,5.35
2023-03-04T23:30:17.015Z,5.22
2023-03-04T23:32:46.996Z,5.14
2023-03-04T23:35:14.292Z,5.05
2023-03-04T23:37:43.612Z,5.02
2023-03-04T23:40:14.591Z,5.31
2023-03-04T23:42:42.169Z,5.13
2023-03-04T23:45:10.036Z,5.32
2023-03-04T23:47:37.029Z,5.00
2023-03-04T23:50:05.180Z,5.13
2023-03-04T23:52:33.210Z,5.27
2023-03-04T23:55:00.199Z,4.55
2023-03-04T23:57:27.090Z,5.07
2023-03-04T23:59:53.995Z,5.28
